sensor_id;sensor_type;location;lat;lon;timestamp;pressure;altitude;pressure_sealevel;temperature;humidity
62946;BME280;52164;52.212;-1.010;2023-01-28T00:01:11;102261.97;;;3.34;69.67
62946;BME280;52164;52.212;-1.010;2023-01-28T00:03:36;102264.05;;;3.32;69.64
62946;BME280;52164;52.212;-1.010;2023-01-28T00:06:03;102258.40;;;3.30;69.67
62946;BME280;52164;52.212;-1.010;2023-01-28T00:08:29;102258.52;;;3.29;69.51
62946;BME280;52164;52.212;-1.010;2023-01-28T00:10:57;102258.34;;;3.29;69.82
62946;BME280;52164;52.212;-1.010;2023-01-28T00:13:22;102258.83;;;3.28;69.92
62946;BME280;52164;52.212;-1.010;2023-01-28T00:15:53;102254.23;;;3.28;69.98
62946;BME280;52164;52.212;-1.010;2023-01-28T00:18:18;102255.27;;;3.28;70.42
62946;BME280;52164;52.212;-1.010;2023-01-28T00:20:43;102259.16;;;3.28;70.32
62946;BME280;52164;52.212;-1.010;2023-01-28T00:23:19;102258.82;;;3.28;70.32
62946;BME280;52164;52.212;-1.010;2023-01-28T00:25:44;102258.65;;;3.28;70.32
62946;BME280;52164;52.212;-1.010;2023-01-28T00:28:09;102255.50;;;3.28;69.82
62946;BME280;52164;52.212;-1.010;2023-01-28T00:30:35;102253.55;;;3.29;70.31
62946;BME280;52164;52.212;-1.010;2023-01-28T00:33:01;102251.15;;;3.30;70.12
62946;BME280;52164;52.212;-1.010;2023-01-28T00:35:26;102249.29;;;3.34;70.21
62946;BME280;52164;52.212;-1.010;2023-01-28T00:37:51;102247.85;;;3.37;70.02
62946;BME280;52164;52.212;-1.010;2023-01-28T00:40:16;102249.69;;;3.42;70.36
62946;BME280;52164;52.212;-1.010;2023-01-28T00:42:42;102250.77;;;3.45;69.89
62946;BME280;52164;52.212;-1.010;2023-01-28T00:45:09;102248.94;;;3.47;69.76
62946;BME280;52164;52.212;-1.010;2023-01-28T00:47:34;102246.30;;;3.47;69.72
62946;BME280;52164;52.212;-1.010;2023-01-28T00:50:00;102241.91;;;3.47;69.90
62946;BME280;52164;52.212;-1.010;2023-01-28T00:52:25;102241.73;;;3.47;70.09
62946;BME280;52164;52.212;-1.010;2023-01-28T00:54:51;102238.55;;;3.47;69.98
62946;BME280;52164;52.212;-1.010;2023-01-28T00:57:16;102241.83;;;3.46;69.87
62946;BME280;52164;52.212;-1.010;2023-01-28T00:59:42;102243.38;;;3.46;69.93
62946;BME280;52164;52.212;-1.010;2023-01-28T01:02:07;102240.68;;;3.45;69.93
62946;BME280;52164;52.212;-1.010;2023-01-28T01:04:36;102240.50;;;3.44;70.05
62946;BME280;52164;52.212;-1.010;2023-01-28T01:07:01;102236.25;;;3.44;69.91
62946;BME280;52164;52.212;-1.010;2023-01-28T01:09:27;102229.13;;;3.40;70.08
62946;BME280;52164;52.212;-1.010;2023-01-28T01:11:52;102225.56;;;3.39;70.18
62946;BME280;52164;52.212;-1.010;2023-01-28T01:14:17;102218.77;;;3.38;70.77
62946;BME280;52164;52.212;-1.010;2023-01-28T01:16:42;102215.38;;;3.37;70.33
62946;BME280;52164;52.212;-1.010;2023-01-28T01:19:07;102209.13;;;3.35;70.72
62946;BME280;52164;52.212;-1.010;2023-01-28T01:21:33;102211.67;;;3.34;70.35
62946;BME280;52164;52.212;-1.010;2023-01-28T01:23:58;102207.17;;;3.32;70.82
62946;BME280;52164;52.212;-1.010;2023-01-28T01:26:23;102207.47;;;3.31;70.79
62946;BME280;52164;52.212;-1.010;2023-01-28T01:28:51;102206.90;;;3.30;70.66
62946;BME280;52164;52.212;-1.010;2023-01-28T01:31:17;102211.57;;;3.29;70.98
62946;BME280;52164;52.212;-1.010;2023-01-28T01:33:45;102211.30;;;3.27;71.22
62946;BME280;52164;52.212;-1.010;2023-01-28T01:36:11;102216.18;;;3.26;71.41
62946;BME280;52164;52.212;-1.010;2023-01-28T01:38:37;102214.84;;;3.24;71.16
62946;BME280;52164;52.212;-1.010;2023-01-28T01:41:03;102216.33;;;3.23;71.05
62946;BME280;52164;52.212;-1.010;2023-01-28T01:43:45;102209.38;;;3.21;71.46
62946;BME280;52164;52.212;-1.010;2023-01-28T01:46:16;102214.95;;;3.20;71.22
62946;BME280;52164;52.212;-1.010;2023-01-28T01:48:43;102211.05;;;3.20;70.69
62946;BME280;52164;52.212;-1.010;2023-01-28T01:51:10;102213.74;;;3.21;71.10
62946;BME280;52164;52.212;-1.010;2023-01-28T01:53:38;102216.27;;;3.21;71.09
62946;BME280;52164;52.212;-1.010;2023-01-28T01:56:05;102214.61;;;3.20;71.30
62946;BME280;52164;52.212;-1.010;2023-01-28T01:58:32;102214.92;;;3.20;71.78
62946;BME280;52164;52.212;-1.010;2023-01-28T02:00:58;102213.63;;;3.19;72.10
62946;BME280;52164;52.212;-1.010;2023-01-28T02:03:25;102214.17;;;3.19;71.60
62946;BME280;52164;52.212;-1.010;2023-01-28T02:05:52;102211.77;;;3.20;71.80
62946;BME280;52164;52.212;-1.010;2023-01-28T02:08:18;102211.39;;;3.23;72.12
62946;BME280;52164;52.212;-1.010;2023-01-28T02:10:48;102221.80;;;3.26;72.04
62946;BME280;52164;52.212;-1.010;2023-01-28T02:13:15;102222.30;;;3.28;72.17
62946;BME280;52164;52.212;-1.010;2023-01-28T02:15:42;102221.48;;;3.32;72.13
62946;BME280;52164;52.212;-1.010;2023-01-28T02:18:08;102225.08;;;3.37;72.63
62946;BME280;52164;52.212;-1.010;2023-01-28T02:20:48;102234.16;;;3.41;72.42
62946;BME280;52164;52.212;-1.010;2023-01-28T02:26:06;102239.79;;;3.44;72.02
62946;BME280;52164;52.212;-1.010;2023-01-28T02:28:31;102235.13;;;3.46;71.33
62946;BME280;52164;52.212;-1.010;2023-01-28T02:33:28;102231.85;;;3.47;71.56
62946;BME280;52164;52.212;-1.010;2023-01-28T02:35:57;102233.94;;;3.47;71.59
62946;BME280;52164;52.212;-1.010;2023-01-28T02:38:32;102234.51;;;3.44;71.46
62946;BME280;52164;52.212;-1.010;2023-01-28T02:41:02;102237.42;;;3.43;71.37
62946;BME280;52164;52.212;-1.010;2023-01-28T02:45:55;102231.38;;;3.42;71.36
62946;BME280;52164;52.212;-1.010;2023-01-28T02:48:42;102231.16;;;3.41;71.68
62946;BME280;52164;52.212;-1.010;2023-01-28T02:51:10;102229.02;;;3.41;71.20
62946;BME280;52164;52.212;-1.010;2023-01-28T02:53:39;102228.77;;;3.40;71.17
62946;BME280;52164;52.212;-1.010;2023-01-28T02:56:13;102226.91;;;3.38;71.74
62946;BME280;52164;52.212;-1.010;2023-01-28T03:03:40;102246.80;;;3.31;71.58
62946;BME280;52164;52.212;-1.010;2023-01-28T03:06:09;102241.06;;;3.29;71.73
62946;BME280;52164;52.212;-1.010;2023-01-28T03:08:42;102234.63;;;3.28;71.33
62946;BME280;52164;52.212;-1.010;2023-01-28T03:11:29;102231.21;;;3.27;71.64
62946;BME280;52164;52.212;-1.010;2023-01-28T03:14:15;102234.70;;;3.26;72.02
62946;BME280;52164;52.212;-1.010;2023-01-28T03:17:02;102235.61;;;3.24;72.46
62946;BME280;52164;52.212;-1.010;2023-01-28T03:19:48;102235.30;;;3.21;72.48
62946;BME280;52164;52.212;-1.010;2023-01-28T03:22:33;102227.09;;;3.20;72.53
62946;BME280;52164;52.212;-1.010;2023-01-28T03:25:21;102219.16;;;3.20;72.30
62946;BME280;52164;52.212;-1.010;2023-01-28T03:28:09;102226.29;;;3.21;72.02
62946;BME280;52164;52.212;-1.010;2023-01-28T03:30:57;102226.02;;;3.22;72.06
62946;BME280;52164;52.212;-1.010;2023-01-28T03:33:47;102220.59;;;3.23;72.10
62946;BME280;52164;52.212;-1.010;2023-01-28T03:36:35;102213.33;;;3.23;72.22
62946;BME280;52164;52.212;-1.010;2023-01-28T03:39:22;102215.65;;;3.23;71.75
62946;BME280;52164;52.212;-1.010;2023-01-28T03:42:20;102219.81;;;3.25;72.41
62946;BME280;52164;52.212;-1.010;2023-01-28T03:44:34;102217.02;;;3.25;72.86
62946;BME280;52164;52.212;-1.010;2023-01-28T03:47:24;102210.71;;;3.26;73.16
62946;BME280;52164;52.212;-1.010;2023-01-28T03:49:51;102212.61;;;3.28;72.95
62946;BME280;52164;52.212;-1.010;2023-01-28T03:52:18;102215.19;;;3.30;72.69
62946;BME280;52164;52.212;-1.010;2023-01-28T03:54:44;102220.81;;;3.33;72.81
62946;BME280;52164;52.212;-1.010;2023-01-28T03:57:12;102223.98;;;3.36;72.74
62946;BME280;52164;52.212;-1.010;2023-01-28T03:59:37;102225.05;;;3.40;72.92
62946;BME280;52164;52.212;-1.010;2023-01-28T04:02:03;102225.64;;;3.41;72.74
62946;BME280;52164;52.212;-1.010;2023-01-28T04:04:29;102224.42;;;3.41;72.82
62946;BME280;52164;52.212;-1.010;2023-01-28T04:06:56;102209.07;;;3.41;72.51
62946;BME280;52164;52.212;-1.010;2023-01-28T04:09:22;102199.75;;;3.41;72.51
62946;BME280;52164;52.212;-1.010;2023-01-28T04:11:47;102202.66;;;3.40;72.19
62946;BME280;52164;52.212;-1.010;2023-01-28T04:14:13;102214.17;;;3.38;72.00
62946;BME280;52164;52.212;-1.010;2023-01-28T04:16:39;102218.27;;;3.35;72.05
62946;BME280;52164;52.212;-1.010;2023-01-28T04:19:04;102212.52;;;3.33;71.77
62946;BME280;52164;52.212;-1.010;2023-01-28T04:21:29;102204.44;;;3.31;72.18
62946;BME280;52164;52.212;-1.010;2023-01-28T04:23:55;102203.84;;;3.30;72.41
62946;BME280;52164;52.212;-1.010;2023-01-28T04:26:20;102205.15;;;3.28;72.40
62946;BME280;52164;52.212;-1.010;2023-01-28T04:28:45;102208.83;;;3.27;72.42
62946;BME280;52164;52.212;-1.010;2023-01-28T04:31:11;102206.48;;;3.26;72.62
62946;BME280;52164;52.212;-1.010;2023-01-28T04:33:36;102208.63;;;3.24;72.48
62946;BME280;52164;52.212;-1.010;2023-01-28T04:36:01;102215.38;;;3.21;72.48
62946;BME280;52164;52.212;-1.010;2023-01-28T04:38:27;102221.58;;;3.19;72.34
62946;BME280;52164;52.212;-1.010;2023-01-28T04:40:53;102217.77;;;3.17;72.83
62946;BME280;52164;52.212;-1.010;2023-01-28T04:43:18;102217.64;;;3.15;72.70
62946;BME280;52164;52.212;-1.010;2023-01-28T04:45:45;102223.37;;;3.13;72.41
62946;BME280;52164;52.212;-1.010;2023-01-28T04:48:11;102219.21;;;3.12;72.61
62946;BME280;52164;52.212;-1.010;2023-01-28T04:50:41;102220.05;;;3.10;72.90
62946;BME280;52164;52.212;-1.010;2023-01-28T04:53:07;102227.36;;;3.09;73.20
62946;BME280;52164;52.212;-1.010;2023-01-28T04:55:32;102232.61;;;3.08;73.12
62946;BME280;52164;52.212;-1.010;2023-01-28T04:57:58;102233.60;;;3.07;73.15
62946;BME280;52164;52.212;-1.010;2023-01-28T05:00:23;102230.48;;;3.05;73.38
62946;BME280;52164;52.212;-1.010;2023-01-28T05:02:48;102225.82;;;3.04;73.20
62946;BME280;52164;52.212;-1.010;2023-01-28T05:05:13;102224.64;;;3.02;73.45
62946;BME280;52164;52.212;-1.010;2023-01-28T05:07:39;102230.50;;;2.99;73.40
62946;BME280;52164;52.212;-1.010;2023-01-28T05:10:04;102233.63;;;2.98;73.09
62946;BME280;52164;52.212;-1.010;2023-01-28T05:12:30;102226.09;;;2.99;73.19
62946;BME280;52164;52.212;-1.010;2023-01-28T05:14:57;102223.32;;;3.03;73.53
62946;BME280;52164;52.212;-1.010;2023-01-28T05:17:22;102216.52;;;3.07;73.88
62946;BME280;52164;52.212;-1.010;2023-01-28T05:19:47;102210.25;;;3.12;73.69
62946;BME280;52164;52.212;-1.010;2023-01-28T05:22:12;102210.41;;;3.15;73.50
62946;BME280;52164;52.212;-1.010;2023-01-28T05:24:38;102210.36;;;3.20;73.59
62946;BME280;52164;52.212;-1.010;2023-01-28T05:27:03;102213.45;;;3.25;73.63
62946;BME280;52164;52.212;-1.010;2023-01-28T05:29:28;102211.95;;;3.29;73.36
62946;BME280;52164;52.212;-1.010;2023-01-28T05:31:53;102213.79;;;3.30;73.19
62946;BME280;52164;52.212;-1.010;2023-01-28T05:34:19;102211.52;;;3.31;73.41
62946;BME280;52164;52.212;-1.010;2023-01-28T05:36:44;102211.50;;;3.31;73.23
62946;BME280;52164;52.212;-1.010;2023-01-28T05:39:11;102211.85;;;3.31;72.93
62946;BME280;52164;52.212;-1.010;2023-01-28T05:41:36;102210.02;;;3.30;73.06
62946;BME280;52164;52.212;-1.010;2023-01-28T05:44:01;102214.89;;;3.28;72.76
62946;BME280;52164;52.212;-1.010;2023-01-28T05:46:27;102216.21;;;3.27;72.88
62946;BME280;52164;52.212;-1.010;2023-01-28T05:48:52;102216.08;;;3.24;72.83
62946;BME280;52164;52.212;-1.010;2023-01-28T05:51:19;102211.16;;;3.21;72.75
62946;BME280;52164;52.212;-1.010;2023-01-28T05:53:44;102208.05;;;3.20;72.85
62946;BME280;52164;52.212;-1.010;2023-01-28T05:56:10;102211.52;;;3.19;72.63
62946;BME280;52164;52.212;-1.010;2023-01-28T05:58:35;102212.76;;;3.19;73.10
62946;BME280;52164;52.212;-1.010;2023-01-28T06:01:00;102217.66;;;3.18;73.25
62946;BME280;52164;52.212;-1.010;2023-01-28T06:03:26;102219.84;;;3.19;73.12
62946;BME280;52164;52.212;-1.010;2023-01-28T06:05:51;102216.02;;;3.20;73.64
62946;BME280;52164;52.212;-1.010;2023-01-28T06:08:16;102215.65;;;3.20;73.59
62946;BME280;52164;52.212;-1.010;2023-01-28T06:10:41;102220.56;;;3.19;73.54
62946;BME280;52164;52.212;-1.010;2023-01-28T06:13:07;102224.92;;;3.18;73.55
62946;BME280;52164;52.212;-1.010;2023-01-28T06:15:32;102223.41;;;3.17;73.76
62946;BME280;52164;52.212;-1.010;2023-01-28T06:17:57;102220.02;;;3.16;73.76
62946;BME280;52164;52.212;-1.010;2023-01-28T06:20:23;102219.59;;;3.15;73.86
62946;BME280;52164;52.212;-1.010;2023-01-28T06:22:51;102215.51;;;3.14;73.90
62946;BME280;52164;52.212;-1.010;2023-01-28T06:25:17;102214.38;;;3.13;73.90
62946;BME280;52164;52.212;-1.010;2023-01-28T06:27:42;102224.39;;;3.12;73.90
62946;BME280;52164;52.212;-1.010;2023-01-28T06:30:08;102226.11;;;3.12;74.18
62946;BME280;52164;52.212;-1.010;2023-01-28T06:32:33;102229.23;;;3.11;74.22
62946;BME280;52164;52.212;-1.010;2023-01-28T06:34:59;102233.91;;;3.09;74.13
62946;BME280;52164;52.212;-1.010;2023-01-28T06:37:24;102226.59;;;3.08;74.19
62946;BME280;52164;52.212;-1.010;2023-01-28T06:39:51;102227.01;;;3.09;73.97
62946;BME280;52164;52.212;-1.010;2023-01-28T06:42:17;102234.02;;;3.08;73.97
62946;BME280;52164;52.212;-1.010;2023-01-28T06:44:42;102236.65;;;3.08;74.09
62946;BME280;52164;52.212;-1.010;2023-01-28T06:47:08;102229.59;;;3.08;74.51
62946;BME280;52164;52.212;-1.010;2023-01-28T06:49:34;102223.75;;;3.07;74.19
62946;BME280;52164;52.212;-1.010;2023-01-28T06:52:03;102221.52;;;3.09;74.22
62946;BME280;52164;52.212;-1.010;2023-01-28T06:54:29;102227.95;;;3.10;74.25
62946;BME280;52164;52.212;-1.010;2023-01-28T06:56:54;102223.73;;;3.10;74.49
62946;BME280;52164;52.212;-1.010;2023-01-28T06:59:19;102222.89;;;3.11;74.49
62946;BME280;52164;52.212;-1.010;2023-01-28T07:01:44;102222.73;;;3.11;74.51
62946;BME280;52164;52.212;-1.010;2023-01-28T07:04:10;102225.77;;;3.12;74.98
62946;BME280;52164;52.212;-1.010;2023-01-28T07:06:35;102229.74;;;3.16;74.85
62946;BME280;52164;52.212;-1.010;2023-01-28T07:09:00;102230.02;;;3.21;74.90
62946;BME280;52164;52.212;-1.010;2023-01-28T07:11:26;102240.53;;;3.26;74.67
62946;BME280;52164;52.212;-1.010;2023-01-28T07:13:51;102238.50;;;3.31;74.27
62946;BME280;52164;52.212;-1.010;2023-01-28T07:16:16;102233.55;;;3.34;74.21
62946;BME280;52164;52.212;-1.010;2023-01-28T07:18:41;102235.39;;;3.35;73.87
62946;BME280;52164;52.212;-1.010;2023-01-28T07:21:07;102238.07;;;3.35;73.83
62946;BME280;52164;52.212;-1.010;2023-01-28T07:23:32;102238.66;;;3.37;74.12
62946;BME280;52164;52.212;-1.010;2023-01-28T07:26:00;102231.42;;;3.37;73.88
62946;BME280;52164;52.212;-1.010;2023-01-28T07:28:25;102230.02;;;3.37;74.01
62946;BME280;52164;52.212;-1.010;2023-01-28T07:30:51;102235.35;;;3.38;73.53
62946;BME280;52164;52.212;-1.010;2023-01-28T07:33:16;102239.36;;;3.37;73.09
62946;BME280;52164;52.212;-1.010;2023-01-28T07:35:42;102235.73;;;3.34;73.22
62946;BME280;52164;52.212;-1.010;2023-01-28T07:38:07;102242.17;;;3.33;73.62
62946;BME280;52164;52.212;-1.010;2023-01-28T07:40:36;102243.89;;;3.33;73.28
62946;BME280;52164;52.212;-1.010;2023-01-28T07:43:02;102239.52;;;3.30;73.57
62946;BME280;52164;52.212;-1.010;2023-01-28T07:45:27;102239.59;;;3.28;73.68
62946;BME280;52164;52.212;-1.010;2023-01-28T07:47:56;102238.25;;;3.26;73.58
62946;BME280;52164;52.212;-1.010;2023-01-28T07:50:21;102234.67;;;3.25;73.84
62946;BME280;52164;52.212;-1.010;2023-01-28T07:52:50;102234.95;;;3.24;73.46
62946;BME280;52164;52.212;-1.010;2023-01-28T07:55:15;102229.73;;;3.22;73.60
62946;BME280;52164;52.212;-1.010;2023-01-28T07:57:47;102227.59;;;3.22;73.75
62946;BME280;52164;52.212;-1.010;2023-01-28T08:00:12;102233.33;;;3.21;73.67
62946;BME280;52164;52.212;-1.010;2023-01-28T08:02:38;102241.57;;;3.20;73.90
62946;BME280;52164;52.212;-1.010;2023-01-28T08:05:03;102242.29;;;3.20;73.64
62946;BME280;52164;52.212;-1.010;2023-01-28T08:07:28;102247.25;;;3.20;73.54
62946;BME280;52164;52.212;-1.010;2023-01-28T08:09:54;102255.55;;;3.20;73.44
62946;BME280;52164;52.212;-1.010;2023-01-28T08:12:21;102257.37;;;3.21;73.38
62946;BME280;52164;52.212;-1.010;2023-01-28T08:14:46;102257.65;;;3.23;73.44
62946;BME280;52164;52.212;-1.010;2023-01-28T08:17:11;102267.26;;;3.25;73.43
62946;BME280;52164;52.212;-1.010;2023-01-28T08:19:37;102268.55;;;3.25;73.24
62946;BME280;52164;52.212;-1.010;2023-01-28T08:22:02;102264.42;;;3.28;73.22
62946;BME280;52164;52.212;-1.010;2023-01-28T08:24:27;102260.39;;;3.28;73.33
62946;BME280;52164;52.212;-1.010;2023-01-28T08:26:53;102264.38;;;3.30;73.07
62946;BME280;52164;52.212;-1.010;2023-01-28T08:29:19;102270.59;;;3.30;73.00
62946;BME280;52164;52.212;-1.010;2023-01-28T08:31:44;102277.54;;;3.31;73.38
62946;BME280;52164;52.212;-1.010;2023-01-28T08:34:09;102287.59;;;3.34;73.19
62946;BME280;52164;52.212;-1.010;2023-01-28T08:36:35;102287.64;;;3.38;73.07
62946;BME280;52164;52.212;-1.010;2023-01-28T08:39:00;102292.15;;;3.44;73.12
62946;BME280;52164;52.212;-1.010;2023-01-28T08:41:25;102295.14;;;3.49;72.91
62946;BME280;52164;52.212;-1.010;2023-01-28T08:43:50;102298.12;;;3.55;72.86
62946;BME280;52164;52.212;-1.010;2023-01-28T08:46:16;102293.58;;;3.62;72.94
62946;BME280;52164;52.212;-1.010;2023-01-28T08:48:41;102283.63;;;3.67;72.67
62946;BME280;52164;52.212;-1.010;2023-01-28T08:51:06;102280.04;;;3.73;72.61
62946;BME280;52164;52.212;-1.010;2023-01-28T08:53:32;102280.48;;;3.77;72.63
62946;BME280;52164;52.212;-1.010;2023-01-28T08:55:57;102291.30;;;3.81;72.76
62946;BME280;52164;52.212;-1.010;2023-01-28T08:58:22;102296.95;;;3.84;72.55
62946;BME280;52164;52.212;-1.010;2023-01-28T09:00:48;102295.29;;;3.86;72.39
62946;BME280;52164;52.212;-1.010;2023-01-28T09:05:58;102285.09;;;3.94;72.20
62946;BME280;52164;52.212;-1.010;2023-01-28T09:08:24;102282.86;;;3.95;71.88
62946;BME280;52164;52.212;-1.010;2023-01-28T09:10:53;102285.84;;;3.97;72.09
62946;BME280;52164;52.212;-1.010;2023-01-28T09:13:20;102293.58;;;4.00;72.10
62946;BME280;52164;52.212;-1.010;2023-01-28T09:15:45;102285.98;;;4.00;71.97
62946;BME280;52164;52.212;-1.010;2023-01-28T09:18:11;102278.77;;;4.00;72.09
62946;BME280;52164;52.212;-1.010;2023-01-28T09:20:36;102272.08;;;4.01;72.11
62946;BME280;52164;52.212;-1.010;2023-01-28T09:23:02;102263.99;;;4.02;72.09
62946;BME280;52164;52.212;-1.010;2023-01-28T09:25:28;102265.36;;;4.04;72.18
62946;BME280;52164;52.212;-1.010;2023-01-28T09:27:53;102262.90;;;4.04;72.12
62946;BME280;52164;52.212;-1.010;2023-01-28T09:30:19;102258.86;;;4.04;72.19
62946;BME280;52164;52.212;-1.010;2023-01-28T09:32:44;102251.38;;;4.07;72.26
62946;BME280;52164;52.212;-1.010;2023-01-28T09:35:09;102254.10;;;4.09;72.14
62946;BME280;52164;52.212;-1.010;2023-01-28T09:37:35;102250.83;;;4.10;72.09
62946;BME280;52164;52.212;-1.010;2023-01-28T09:40:01;102250.58;;;4.12;71.89
62946;BME280;52164;52.212;-1.010;2023-01-28T09:42:34;102247.65;;;4.13;71.81
62946;BME280;52164;52.212;-1.010;2023-01-28T09:49:56;102242.59;;;4.18;71.76
62946;BME280;52164;52.212;-1.010;2023-01-28T09:52:22;102249.63;;;4.20;71.82
62946;BME280;52164;52.212;-1.010;2023-01-28T09:57:20;102249.52;;;4.28;71.55
62946;BME280;52164;52.212;-1.010;2023-01-28T09:59:46;102250.85;;;4.33;71.58
62946;BME280;52164;52.212;-1.010;2023-01-28T10:04:43;102231.42;;;4.44;71.62
62946;BME280;52164;52.212;-1.010;2023-01-28T10:07:17;102230.02;;;4.51;71.55
62946;BME280;52164;52.212;-1.010;2023-01-28T10:09:53;102222.23;;;4.61;71.61
62946;BME280;52164;52.212;-1.010;2023-01-28T10:12:32;102219.66;;;4.70;71.71
62946;BME280;52164;52.212;-1.010;2023-01-28T10:15:19;102222.48;;;4.76;71.68
62946;BME280;52164;52.212;-1.010;2023-01-28T10:17:47;102218.23;;;4.83;71.69
62946;BME280;52164;52.212;-1.010;2023-01-28T10:20:16;102218.39;;;4.94;71.34
62946;BME280;52164;52.212;-1.010;2023-01-28T10:22:44;102219.36;;;5.02;71.39
62946;BME280;52164;52.212;-1.010;2023-01-28T10:25:14;102218.52;;;5.07;71.12
62946;BME280;52164;52.212;-1.010;2023-01-28T10:27:41;102218.08;;;5.12;71.13
62946;BME280;52164;52.212;-1.010;2023-01-28T10:30:14;102213.06;;;5.15;70.96
62946;BME280;52164;52.212;-1.010;2023-01-28T10:32:42;102214.19;;;5.16;70.68
62946;BME280;52164;52.212;-1.010;2023-01-28T10:35:10;102220.34;;;5.15;70.38
62946;BME280;52164;52.212;-1.010;2023-01-28T10:37:36;102219.07;;;5.15;70.18
62946;BME280;52164;52.212;-1.010;2023-01-28T10:40:03;102216.78;;;5.15;70.33
62946;BME280;52164;52.212;-1.010;2023-01-28T10:44:56;102221.56;;;5.15;70.47
62946;BME280;52164;52.212;-1.010;2023-01-28T10:47:26;102224.44;;;5.16;70.30
62946;BME280;52164;52.212;-1.010;2023-01-28T10:49:53;102224.38;;;5.14;70.63
62946;BME280;52164;52.212;-1.010;2023-01-28T10:52:20;102223.31;;;5.10;70.53
62946;BME280;52164;52.212;-1.010;2023-01-28T10:54:45;102225.67;;;5.08;70.81
62946;BME280;52164;52.212;-1.010;2023-01-28T10:57:12;102231.17;;;5.05;70.91
62946;BME280;52164;52.212;-1.010;2023-01-28T10:59:40;102237.30;;;5.04;71.03
62946;BME280;52164;52.212;-1.010;2023-01-28T11:02:24;102232.54;;;5.01;71.15
62946;BME280;52164;52.212;-1.010;2023-01-28T11:05:13;102228.19;;;5.02;71.26
62946;BME280;52164;52.212;-1.010;2023-01-28T11:07:36;102225.19;;;5.02;71.37
62946;BME280;52164;52.212;-1.010;2023-01-28T11:10:01;102233.42;;;5.07;71.66
62946;BME280;52164;52.212;-1.010;2023-01-28T11:12:27;102233.67;;;5.13;71.69
62946;BME280;52164;52.212;-1.010;2023-01-28T11:14:55;102227.24;;;5.19;71.89
62946;BME280;52164;52.212;-1.010;2023-01-28T11:17:24;102233.30;;;5.27;71.98
62946;BME280;52164;52.212;-1.010;2023-01-28T11:19:50;102235.27;;;5.34;71.81
62946;BME280;52164;52.212;-1.010;2023-01-28T11:22:22;102230.67;;;5.38;71.83
62946;BME280;52164;52.212;-1.010;2023-01-28T11:24:49;102232.27;;;5.41;71.74
62946;BME280;52164;52.212;-1.010;2023-01-28T11:27:15;102232.59;;;5.44;71.92
62946;BME280;52164;52.212;-1.010;2023-01-28T11:29:42;102230.17;;;5.50;71.84
62946;BME280;52164;52.212;-1.010;2023-01-28T11:32:15;102227.60;;;5.55;71.93
62946;BME280;52164;52.212;-1.010;2023-01-28T11:34:46;102226.85;;;5.58;71.71
62946;BME280;52164;52.212;-1.010;2023-01-28T11:37:13;102223.16;;;5.62;71.98
62946;BME280;52164;52.212;-1.010;2023-01-28T11:39:40;102226.55;;;5.74;71.53
62946;BME280;52164;52.212;-1.010;2023-01-28T11:42:10;102228.86;;;5.78;71.39
62946;BME280;52164;52.212;-1.010;2023-01-28T11:44:36;102225.23;;;5.88;71.53
62946;BME280;52164;52.212;-1.010;2023-01-28T11:51:56;102231.30;;;5.99;71.75
62946;BME280;52164;52.212;-1.010;2023-01-28T11:54:34;102233.08;;;5.96;71.82
62946;BME280;52164;52.212;-1.010;2023-01-28T12:00:08;102226.61;;;5.83;71.85
62946;BME280;52164;52.212;-1.010;2023-01-28T12:02:19;102230.73;;;5.73;71.99
62946;BME280;52164;52.212;-1.010;2023-01-28T12:04:59;102235.51;;;5.61;72.18
62946;BME280;52164;52.212;-1.010;2023-01-28T12:07:40;102238.45;;;5.53;72.38
62946;BME280;52164;52.212;-1.010;2023-01-28T12:10:13;102239.56;;;5.46;72.47
62946;BME280;52164;52.212;-1.010;2023-01-28T12:15:15;102232.48;;;5.35;72.48
62946;BME280;52164;52.212;-1.010;2023-01-28T12:24:59;102225.51;;;5.34;72.75
62946;BME280;52164;52.212;-1.010;2023-01-28T12:25:28;102221.00;;;5.36;72.93
62946;BME280;52164;52.212;-1.010;2023-01-28T12:30:33;102218.08;;;5.48;73.00
62946;BME280;52164;52.212;-1.010;2023-01-28T12:40:28;102203.30;;;5.62;72.64
62946;BME280;52164;52.212;-1.010;2023-01-28T12:45:24;102194.10;;;5.66;72.51
62946;BME280;52164;52.212;-1.010;2023-01-28T12:47:59;102186.41;;;5.64;72.77
62946;BME280;52164;52.212;-1.010;2023-01-28T12:50:28;102182.73;;;5.61;72.46
62946;BME280;52164;52.212;-1.010;2023-01-28T12:52:57;102179.64;;;5.59;72.48
62946;BME280;52164;52.212;-1.010;2023-01-28T12:57:49;102179.69;;;5.64;72.56
62946;BME280;52164;52.212;-1.010;2023-01-28T13:00:33;102177.55;;;5.68;72.43
62946;BME280;52164;52.212;-1.010;2023-01-28T13:03:06;102174.88;;;5.68;72.31
62946;BME280;52164;52.212;-1.010;2023-01-28T13:05:37;102169.02;;;5.63;72.57
62946;BME280;52164;52.212;-1.010;2023-01-28T13:08:10;102168.46;;;5.63;72.73
62946;BME280;52164;52.212;-1.010;2023-01-28T13:10:39;102163.56;;;5.64;72.63
62946;BME280;52164;52.212;-1.010;2023-01-28T13:13:06;102159.44;;;5.64;72.77
62946;BME280;52164;52.212;-1.010;2023-01-28T13:15:31;102156.63;;;5.64;72.85
62946;BME280;52164;52.212;-1.010;2023-01-28T13:18:03;102158.85;;;5.62;72.49
62946;BME280;52164;52.212;-1.010;2023-01-28T13:20:30;102162.93;;;5.62;72.94
62946;BME280;52164;52.212;-1.010;2023-01-28T13:23:00;102161.25;;;5.64;72.68
62946;BME280;52164;52.212;-1.010;2023-01-28T13:25:26;102165.71;;;5.65;72.79
62946;BME280;52164;52.212;-1.010;2023-01-28T13:27:54;102160.64;;;5.66;72.43
62946;BME280;52164;52.212;-1.010;2023-01-28T13:30:22;102158.84;;;5.66;72.70
62946;BME280;52164;52.212;-1.010;2023-01-28T13:32:53;102158.64;;;5.65;72.91
62946;BME280;52164;52.212;-1.010;2023-01-28T13:35:35;102155.64;;;5.65;72.68
62946;BME280;52164;52.212;-1.010;2023-01-28T13:38:12;102151.34;;;5.60;72.80
62946;BME280;52164;52.212;-1.010;2023-01-28T13:40:39;102146.84;;;5.59;72.84
62946;BME280;52164;52.212;-1.010;2023-01-28T13:43:22;102142.29;;;5.56;72.98
62946;BME280;52164;52.212;-1.010;2023-01-28T13:45:57;102139.52;;;5.54;73.06
62946;BME280;52164;52.212;-1.010;2023-01-28T13:48:41;102140.88;;;5.53;73.33
62946;BME280;52164;52.212;-1.010;2023-01-28T13:51:12;102144.20;;;5.52;73.45
62946;BME280;52164;52.212;-1.010;2023-01-28T13:53:43;102141.73;;;5.52;73.46